sensor_id;sensor_type;location;lat;lon;timestamp;temperature;humidity
23669;DHT22;12011;47.422;15.018;2022-11-20T00:02:26;0.80;99.90
23669;DHT22;12011;47.422;15.018;2022-11-20T00:05:18;0.70;99.90
23669;DHT22;12011;47.422;15.018;2022-11-20T00:08:17;0.70;99.90
23669;DHT22;12011;47.422;15.018;2022-11-20T00:11:12;0.70;99.90
23669;DHT22;12011;47.422;15.018;2022-11-20T00:14:06;0.80;99.90
23669;DHT22;12011;47.422;15.018;2022-11-20T00:16:59;0.80;99.90
23669;DHT22;12011;47.422;15.018;2022-11-20T00:19:52;0.80;99.90
23669;DHT22;12011;47.422;15.018;2022-11-20T00:22:46;0.80;99.90
23669;DHT22;12011;47.422;15.018;2022-11-20T00:25:36;0.80;99.90
23669;DHT22;12011;47.422;15.018;2022-11-20T00:28:29;0.80;99.90
23669;DHT22;12011;47.422;15.018;2022-11-20T00:31:19;0.80;99.90
23669;DHT22;12011;47.422;15.018;2022-11-20T00:34:10;0.80;99.90
23669;DHT22;12011;47.422;15.018;2022-11-20T00:37:00;0.80;99.90
23669;DHT22;12011;47.422;15.018;2022-11-20T00:39:52;0.80;99.90
23669;DHT22;12011;47.422;15.018;2022-11-20T00:42:49;0.80;99.90
23669;DHT22;12011;47.422;15.018;2022-11-20T00:45:42;0.80;99.90
23669;DHT22;12011;47.422;15.018;2022-11-20T00:48:37;0.90;99.90
23669;DHT22;12011;47.422;15.018;2022-11-20T00:51:28;0.80;99.90
23669;DHT22;12011;47.422;15.018;2022-11-20T00:54:25;0.80;99.90
23669;DHT22;12011;47.422;15.018;2022-11-20T00:57:17;0.70;99.90
23669;DHT22;12011;47.422;15.018;2022-11-20T01:00:11;0.70;99.90
23669;DHT22;12011;47.422;15.018;2022-11-20T01:03:03;0.70;99.90
23669;DHT22;12011;47.422;15.018;2022-11-20T01:06:00;0.70;99.90
23669;DHT22;12011;47.422;15.018;2022-11-20T01:08:55;0.80;99.90
23669;DHT22;12011;47.422;15.018;2022-11-20T01:11:47;0.80;99.90
23669;DHT22;12011;47.422;15.018;2022-11-20T01:14:45;0.70;99.90
23669;DHT22;12011;47.422;15.018;2022-11-20T01:17:38;0.70;99.90
23669;DHT22;12011;47.422;15.018;2022-11-20T01:20:29;0.70;99.90
23669;DHT22;12011;47.422;15.018;2022-11-20T01:23:19;0.70;99.90
23669;DHT22;12011;47.422;15.018;2022-11-20T01:26:17;0.70;99.90
23669;DHT22;12011;47.422;15.018;2022-11-20T01:29:14;0.70;99.90
23669;DHT22;12011;47.422;15.018;2022-11-20T01:32:09;0.60;99.90
23669;DHT22;12011;47.422;15.018;2022-11-20T01:35:04;0.60;99.90
23669;DHT22;12011;47.422;15.018;2022-11-20T01:37:59;0.40;99.90
23669;DHT22;12011;47.422;15.018;2022-11-20T01:41:02;0.50;99.90
23669;DHT22;12011;47.422;15.018;2022-11-20T01:43:55;0.50;99.90
23669;DHT22;12011;47.422;15.018;2022-11-20T01:46:55;0.40;99.90
23669;DHT22;12011;47.422;15.018;2022-11-20T01:49:55;0.40;99.90
23669;DHT22;12011;47.422;15.018;2022-11-20T01:52:52;0.50;99.90
23669;DHT22;12011;47.422;15.018;2022-11-20T01:55:53;0.50;99.90
23669;DHT22;12011;47.422;15.018;2022-11-20T01:58:56;0.60;99.90
23669;DHT22;12011;47.422;15.018;2022-11-20T02:02:01;0.60;99.90
23669;DHT22;12011;47.422;15.018;2022-11-20T02:05:01;0.60;99.90
23669;DHT22;12011;47.422;15.018;2022-11-20T02:08:03;0.70;99.90
23669;DHT22;12011;47.422;15.018;2022-11-20T02:10:57;0.70;99.90
23669;DHT22;12011;47.422;15.018;2022-11-20T02:13:49;0.70;99.90
23669;DHT22;12011;47.422;15.018;2022-11-20T02:16:46;0.70;99.90
23669;DHT22;12011;47.422;15.018;2022-11-20T02:19:37;0.70;99.90
23669;DHT22;12011;47.422;15.018;2022-11-20T02:22:41;0.80;99.90
23669;DHT22;12011;47.422;15.018;2022-11-20T02:25:40;0.90;99.90
23669;DHT22;12011;47.422;15.018;2022-11-20T02:28:35;1.00;99.90
23669;DHT22;12011;47.422;15.018;2022-11-20T02:31:25;1.00;99.90
23669;DHT22;12011;47.422;15.018;2022-11-20T02:34:19;1.00;99.90
23669;DHT22;12011;47.422;15.018;2022-11-20T02:37:18;1.00;99.90
23669;DHT22;12011;47.422;15.018;2022-11-20T02:40:10;1.60;99.90
23669;DHT22;12011;47.422;15.018;2022-11-20T02:43:03;1.20;99.90
23669;DHT22;12011;47.422;15.018;2022-11-20T02:45:56;1.20;99.90
23669;DHT22;12011;47.422;15.018;2022-11-20T02:48:50;1.20;99.90
23669;DHT22;12011;47.422;15.018;2022-11-20T02:51:45;1.30;99.90
23669;DHT22;12011;47.422;15.018;2022-11-20T02:54:38;1.30;99.90
23669;DHT22;12011;47.422;15.018;2022-11-20T02:57:34;1.20;99.90
23669;DHT22;12011;47.422;15.018;2022-11-20T03:00:29;1.20;99.90
23669;DHT22;12011;47.422;15.018;2022-11-20T03:03:19;1.20;99.90
23669;DHT22;12011;47.422;15.018;2022-11-20T03:06:12;1.20;99.90
23669;DHT22;12011;47.422;15.018;2022-11-20T03:09:03;1.20;99.90
23669;DHT22;12011;47.422;15.018;2022-11-20T03:11:56;1.20;99.90
23669;DHT22;12011;47.422;15.018;2022-11-20T03:14:54;1.20;99.90
23669;DHT22;12011;47.422;15.018;2022-11-20T03:17:48;1.20;99.90
23669;DHT22;12011;47.422;15.018;2022-11-20T03:20:38;1.30;99.90
23669;DHT22;12011;47.422;15.018;2022-11-20T03:23:34;1.30;99.90
23669;DHT22;12011;47.422;15.018;2022-11-20T03:26:27;1.20;99.90
23669;DHT22;12011;47.422;15.018;2022-11-20T03:29:18;1.10;99.90
23669;DHT22;12011;47.422;15.018;2022-11-20T03:32:11;1.10;99.90
23669;DHT22;12011;47.422;15.018;2022-11-20T03:35:08;1.00;99.90
23669;DHT22;12011;47.422;15.018;2022-11-20T03:38:02;1.00;99.90
23669;DHT22;12011;47.422;15.018;2022-11-20T03:40:59;1.10;99.90
23669;DHT22;12011;47.422;15.018;2022-11-20T03:43:53;1.00;99.90
23669;DHT22;12011;47.422;15.018;2022-11-20T03:46:48;1.00;99.90
23669;DHT22;12011;47.422;15.018;2022-11-20T03:49:38;1.00;99.90
23669;DHT22;12011;47.422;15.018;2022-11-20T03:52:35;1.00;99.90
23669;DHT22;12011;47.422;15.018;2022-11-20T03:55:30;1.00;99.90
23669;DHT22;12011;47.422;15.018;2022-11-20T03:58:20;1.10;99.90
23669;DHT22;12011;47.422;15.018;2022-11-20T04:01:14;1.10;99.90
23669;DHT22;12011;47.422;15.018;2022-11-20T04:04:18;1.10;99.90
23669;DHT22;12011;47.422;15.018;2022-11-20T04:07:12;1.00;99.90
23669;DHT22;12011;47.422;15.018;2022-11-20T04:10:05;0.90;99.90
23669;DHT22;12011;47.422;15.018;2022-11-20T04:12:56;0.90;99.90
23669;DHT22;12011;47.422;15.018;2022-11-20T04:15:51;0.80;99.90
23669;DHT22;12011;47.422;15.018;2022-11-20T04:18:43;0.80;99.90
23669;DHT22;12011;47.422;15.018;2022-11-20T04:21:33;0.80;99.90
23669;DHT22;12011;47.422;15.018;2022-11-20T04:24:30;0.80;99.90
23669;DHT22;12011;47.422;15.018;2022-11-20T04:27:26;0.80;99.90
23669;DHT22;12011;47.422;15.018;2022-11-20T04:30:20;0.80;99.90
23669;DHT22;12011;47.422;15.018;2022-11-20T04:33:21;0.90;99.90
23669;DHT22;12011;47.422;15.018;2022-11-20T04:36:14;1.00;99.90
23669;DHT22;12011;47.422;15.018;2022-11-20T04:39:12;1.10;99.90
23669;DHT22;12011;47.422;15.018;2022-11-20T04:42:04;1.10;99.90
23669;DHT22;12011;47.422;15.018;2022-11-20T04:45:09;1.10;99.90
23669;DHT22;12011;47.422;15.018;2022-11-20T04:48:01;1.10;99.90
23669;DHT22;12011;47.422;15.018;2022-11-20T04:50:54;1.10;99.90
23669;DHT22;12011;47.422;15.018;2022-11-20T04:53:48;1.10;99.90
23669;DHT22;12011;47.422;15.018;2022-11-20T04:56:39;1.20;99.90
23669;DHT22;12011;47.422;15.018;2022-11-20T04:59:31;1.20;99.90
23669;DHT22;12011;47.422;15.018;2022-11-20T05:02:24;1.20;99.90
23669;DHT22;12011;47.422;15.018;2022-11-20T05:05:14;1.20;99.90
23669;DHT22;12011;47.422;15.018;2022-11-20T05:08:06;1.20;99.90
23669;DHT22;12011;47.422;15.018;2022-11-20T05:11:05;1.20;99.90
23669;DHT22;12011;47.422;15.018;2022-11-20T05:14:03;1.20;99.90
23669;DHT22;12011;47.422;15.018;2022-11-20T05:16:53;1.20;99.90
23669;DHT22;12011;47.422;15.018;2022-11-20T05:19:50;1.10;99.90
23669;DHT22;12011;47.422;15.018;2022-11-20T05:22:40;1.10;99.90
23669;DHT22;12011;47.422;15.018;2022-11-20T05:25:30;1.10;99.90
23669;DHT22;12011;47.422;15.018;2022-11-20T05:28:22;1.10;99.90
23669;DHT22;12011;47.422;15.018;2022-11-20T05:31:14;1.10;99.90
23669;DHT22;12011;47.422;15.018;2022-11-20T05:34:17;1.20;99.90
23669;DHT22;12011;47.422;15.018;2022-11-20T05:37:12;1.10;99.90
23669;DHT22;12011;47.422;15.018;2022-11-20T05:40:04;1.10;99.90
23669;DHT22;12011;47.422;15.018;2022-11-20T05:42:55;1.20;99.90
23669;DHT22;12011;47.422;15.018;2022-11-20T05:45:52;1.20;99.90
23669;DHT22;12011;47.422;15.018;2022-11-20T05:48:44;1.30;99.90
23669;DHT22;12011;47.422;15.018;2022-11-20T05:51:34;1.40;99.90
23669;DHT22;12011;47.422;15.018;2022-11-20T05:54:27;1.40;99.90
23669;DHT22;12011;47.422;15.018;2022-11-20T05:57:16;1.40;99.90
23669;DHT22;12011;47.422;15.018;2022-11-20T06:00:08;1.40;99.90
23669;DHT22;12011;47.422;15.018;2022-11-20T06:02:59;1.40;99.90
23669;DHT22;12011;47.422;15.018;2022-11-20T06:05:48;1.30;99.90
23669;DHT22;12011;47.422;15.018;2022-11-20T06:08:38;1.30;99.90
23669;DHT22;12011;47.422;15.018;2022-11-20T06:11:31;1.30;99.90
23669;DHT22;12011;47.422;15.018;2022-11-20T06:14:21;1.40;99.90
23669;DHT22;12011;47.422;15.018;2022-11-20T06:17:10;1.40;99.90
23669;DHT22;12011;47.422;15.018;2022-11-20T06:20:00;1.40;99.90
23669;DHT22;12011;47.422;15.018;2022-11-20T06:22:50;1.40;99.90
23669;DHT22;12011;47.422;15.018;2022-11-20T06:25:41;1.00;99.90
23669;DHT22;12011;47.422;15.018;2022-11-20T06:28:34;1.40;99.90
23669;DHT22;12011;47.422;15.018;2022-11-20T06:31:26;1.40;99.90
23669;DHT22;12011;47.422;15.018;2022-11-20T06:34:16;1.50;99.90
23669;DHT22;12011;47.422;15.018;2022-11-20T06:37:06;1.50;99.90
23669;DHT22;12011;47.422;15.018;2022-11-20T06:39:56;1.60;99.90
23669;DHT22;12011;47.422;15.018;2022-11-20T06:42:45;1.60;99.90
23669;DHT22;12011;47.422;15.018;2022-11-20T06:45:38;1.60;99.90
23669;DHT22;12011;47.422;15.018;2022-11-20T06:48:28;1.60;99.90
23669;DHT22;12011;47.422;15.018;2022-11-20T06:51:19;1.60;99.90
23669;DHT22;12011;47.422;15.018;2022-11-20T06:54:09;1.60;99.90
23669;DHT22;12011;47.422;15.018;2022-11-20T06:56:58;1.50;99.90
23669;DHT22;12011;47.422;15.018;2022-11-20T06:59:48;1.50;99.90
23669;DHT22;12011;47.422;15.018;2022-11-20T07:02:41;1.60;99.90
23669;DHT22;12011;47.422;15.018;2022-11-20T07:05:31;1.60;99.90
23669;DHT22;12011;47.422;15.018;2022-11-20T07:08:21;1.70;99.90
23669;DHT22;12011;47.422;15.018;2022-11-20T07:11:12;1.80;99.90
23669;DHT22;12011;47.422;15.018;2022-11-20T07:14:02;1.90;99.90
23669;DHT22;12011;47.422;15.018;2022-11-20T07:16:52;2.00;99.90
23669;DHT22;12011;47.422;15.018;2022-11-20T07:19:45;2.00;99.90
23669;DHT22;12011;47.422;15.018;2022-11-20T07:22:34;2.00;99.90
23669;DHT22;12011;47.422;15.018;2022-11-20T07:25:26;2.10;99.90
23669;DHT22;12011;47.422;15.018;2022-11-20T07:28:17;2.10;99.90
23669;DHT22;12011;47.422;15.018;2022-11-20T07:31:07;2.20;99.90
23669;DHT22;12011;47.422;15.018;2022-11-20T07:33:56;2.30;99.90
23669;DHT22;12011;47.422;15.018;2022-11-20T07:36:49;2.30;99.90
23669;DHT22;12011;47.422;15.018;2022-11-20T07:39:39;2.40;99.90
23669;DHT22;12011;47.422;15.018;2022-11-20T07:42:29;2.50;99.90
23669;DHT22;12011;47.422;15.018;2022-11-20T07:45:19;2.40;99.90
23669;DHT22;12011;47.422;15.018;2022-11-20T07:48:10;2.40;99.90
23669;DHT22;12011;47.422;15.018;2022-11-20T07:51:00;2.40;99.90
23669;DHT22;12011;47.422;15.018;2022-11-20T07:53:53;2.40;99.90
23669;DHT22;12011;47.422;15.018;2022-11-20T07:56:44;2.40;99.90
23669;DHT22;12011;47.422;15.018;2022-11-20T07:59:33;2.50;99.90
23669;DHT22;12011;47.422;15.018;2022-11-20T08:02:25;2.50;99.90
23669;DHT22;12011;47.422;15.018;2022-11-20T08:05:15;2.60;99.90
23669;DHT22;12011;47.422;15.018;2022-11-20T08:08:05;2.70;99.90
23669;DHT22;12011;47.422;15.018;2022-11-20T08:10:59;2.70;99.90
23669;DHT22;12011;47.422;15.018;2022-11-20T08:14:01;2.70;99.90
23669;DHT22;12011;47.422;15.018;2022-11-20T08:17:03;2.70;99.90
23669;DHT22;12011;47.422;15.018;2022-11-20T08:19:53;2.70;99.90
23669;DHT22;12011;47.422;15.018;2022-11-20T08:22:43;2.80;99.90
23669;DHT22;12011;47.422;15.018;2022-11-20T08:25:34;2.90;99.90
23669;DHT22;12011;47.422;15.018;2022-11-20T08:28:28;3.00;99.90
23669;DHT22;12011;47.422;15.018;2022-11-20T08:31:17;3.10;99.90
23669;DHT22;12011;47.422;15.018;2022-11-20T08:34:07;3.10;99.90
23669;DHT22;12011;47.422;15.018;2022-11-20T08:36:57;3.20;99.90
23669;DHT22;12011;47.422;15.018;2022-11-20T08:39:47;3.30;99.90
23669;DHT22;12011;47.422;15.018;2022-11-20T08:42:37;3.40;99.90
23669;DHT22;12011;47.422;15.018;2022-11-20T08:45:37;3.70;99.90
23669;DHT22;12011;47.422;15.018;2022-11-20T08:48:27;3.90;99.90
23669;DHT22;12011;47.422;15.018;2022-11-20T08:51:18;4.00;99.90
23669;DHT22;12011;47.422;15.018;2022-11-20T08:54:08;4.10;99.90
23669;DHT22;12011;47.422;15.018;2022-11-20T08:56:58;4.10;99.90
23669;DHT22;12011;47.422;15.018;2022-11-20T08:59:48;4.40;99.90
23669;DHT22;12011;47.422;15.018;2022-11-20T09:02:40;4.50;99.90
23669;DHT22;12011;47.422;15.018;2022-11-20T09:05:30;4.20;99.90
23669;DHT22;12011;47.422;15.018;2022-11-20T09:08:20;4.10;99.90
23669;DHT22;12011;47.422;15.018;2022-11-20T09:11:11;3.90;99.90
23669;DHT22;12011;47.422;15.018;2022-11-20T09:14:00;3.90;99.90
23669;DHT22;12011;47.422;15.018;2022-11-20T09:16:50;3.90;99.90
23669;DHT22;12011;47.422;15.018;2022-11-20T09:19:43;4.00;99.90
23669;DHT22;12011;47.422;15.018;2022-11-20T09:22:33;4.20;99.90
23669;DHT22;12011;47.422;15.018;2022-11-20T09:25:23;4.20;99.90
23669;DHT22;12011;47.422;15.018;2022-11-20T09:28:13;4.20;99.90
23669;DHT22;12011;47.422;15.018;2022-11-20T09:31:05;3.80;99.90
23669;DHT22;12011;47.422;15.018;2022-11-20T09:33:56;4.40;99.90
23669;DHT22;12011;47.422;15.018;2022-11-20T09:36:48;4.50;99.90
23669;DHT22;12011;47.422;15.018;2022-11-20T09:39:38;4.50;99.90
23669;DHT22;12011;47.422;15.018;2022-11-20T09:42:39;4.50;99.90
23669;DHT22;12011;47.422;15.018;2022-11-20T09:45:45;4.60;99.90
23669;DHT22;12011;47.422;15.018;2022-11-20T09:48:53;4.60;99.90
23669;DHT22;12011;47.422;15.018;2022-11-20T09:51:58;4.80;99.90
23669;DHT22;12011;47.422;15.018;2022-11-20T09:54:50;5.10;99.90
23669;DHT22;12011;47.422;15.018;2022-11-20T09:57:45;5.30;99.90
23669;DHT22;12011;47.422;15.018;2022-11-20T10:00:37;5.50;99.90
23669;DHT22;12011;47.422;15.018;2022-11-20T10:03:39;5.40;99.90
23669;DHT22;12011;47.422;15.018;2022-11-20T10:06:39;5.30;99.90
23669;DHT22;12011;47.422;15.018;2022-11-20T10:09:37;5.40;99.90
23669;DHT22;12011;47.422;15.018;2022-11-20T10:12:39;5.40;99.90
23669;DHT22;12011;47.422;15.018;2022-11-20T10:15:53;5.30;99.90
23669;DHT22;12011;47.422;15.018;2022-11-20T10:19:07;5.40;99.90
23669;DHT22;12011;47.422;15.018;2022-11-20T10:22:15;5.50;99.90
23669;DHT22;12011;47.422;15.018;2022-11-20T10:25:18;5.50;99.90
23669;DHT22;12011;47.422;15.018;2022-11-20T10:28:36;5.60;99.90
23669;DHT22;12011;47.422;15.018;2022-11-20T10:31:34;5.60;99.90
23669;DHT22;12011;47.422;15.018;2022-11-20T10:34:28;5.70;99.90
23669;DHT22;12011;47.422;15.018;2022-11-20T10:37:42;5.80;99.90
23669;DHT22;12011;47.422;15.018;2022-11-20T10:40:40;5.80;99.90
23669;DHT22;12011;47.422;15.018;2022-11-20T10:43:33;6.10;99.90
23669;DHT22;12011;47.422;15.018;2022-11-20T10:46:25;6.00;99.90
23669;DHT22;12011;47.422;15.018;2022-11-20T10:49:24;6.20;99.90
23669;DHT22;12011;47.422;15.018;2022-11-20T10:52:24;6.60;99.90
23669;DHT22;12011;47.422;15.018;2022-11-20T10:55:28;7.10;99.90
23669;DHT22;12011;47.422;15.018;2022-11-20T10:58:38;7.50;96.40
23669;DHT22;12011;47.422;15.018;2022-11-20T11:01:41;7.90;91.20
23669;DHT22;12011;47.422;15.018;2022-11-20T11:04:38;8.60;90.00
23669;DHT22;12011;47.422;15.018;2022-11-20T11:07:36;10.70;72.60
23669;DHT22;12011;47.422;15.018;2022-11-20T11:10:36;11.40;65.10
23669;DHT22;12011;47.422;15.018;2022-11-20T11:13:32;11.30;64.50
23669;DHT22;12011;47.422;15.018;2022-11-20T11:16:24;12.50;60.30
23669;DHT22;12011;47.422;15.018;2022-11-20T11:19:15;12.50;53.90
23669;DHT22;12011;47.422;15.018;2022-11-20T11:22:12;12.70;54.90
23669;DHT22;12011;47.422;15.018;2022-11-20T11:25:23;12.60;54.40
23669;DHT22;12011;47.422;15.018;2022-11-20T11:28:20;10.90;58.60
23669;DHT22;12011;47.422;15.018;2022-11-20T11:31:25;10.30;62.00
23669;DHT22;12011;47.422;15.018;2022-11-20T11:34:17;9.70;63.30
23669;DHT22;12011;47.422;15.018;2022-11-20T11:37:15;9.70;63.20
23669;DHT22;12011;47.422;15.018;2022-11-20T11:40:11;8.90;67.30
23669;DHT22;12011;47.422;15.018;2022-11-20T11:43:06;8.80;77.40
23669;DHT22;12011;47.422;15.018;2022-11-20T11:46:32;8.30;80.10
23669;DHT22;12011;47.422;15.018;2022-11-20T11:49:21;7.80;88.50
23669;DHT22;12011;47.422;15.018;2022-11-20T11:52:15;7.80;93.20
23669;DHT22;12011;47.422;15.018;2022-11-20T11:55:15;7.80;93.60
23669;DHT22;12011;47.422;15.018;2022-11-20T11:58:17;7.80;91.80
23669;DHT22;12011;47.422;15.018;2022-11-20T12:01:32;7.80;95.20
23669;DHT22;12011;47.422;15.018;2022-11-20T12:04:42;7.70;89.90
23669;DHT22;12011;47.422;15.018;2022-11-20T12:07:45;7.80;91.90
23669;DHT22;12011;47.422;15.018;2022-11-20T12:10:45;8.30;89.00
23669;DHT22;12011;47.422;15.018;2022-11-20T12:13:48;9.60;74.60
23669;DHT22;12011;47.422;15.018;2022-11-20T12:16:47;10.40;70.60
23669;DHT22;12011;47.422;15.018;2022-11-20T12:19:38;12.20;60.20
23669;DHT22;12011;47.422;15.018;2022-11-20T12:22:35;13.30;54.80
23669;DHT22;12011;47.422;15.018;2022-11-20T12:25:50;14.00;51.10
23669;DHT22;12011;47.422;15.018;2022-11-20T12:28:58;15.00;45.60
23669;DHT22;12011;47.422;15.018;2022-11-20T12:35:52;15.60;43.00
23669;DHT22;12011;47.422;15.018;2022-11-20T12:39:21;15.60;42.10
23669;DHT22;12011;47.422;15.018;2022-11-20T12:42:43;15.70;40.80
23669;DHT22;12011;47.422;15.018;2022-11-20T12:46:12;15.30;40.20
23669;DHT22;12011;47.422;15.018;2022-11-20T12:49:28;14.70;39.50
23669;DHT22;12011;47.422;15.018;2022-11-20T12:52:39;14.40;43.20
23669;DHT22;12011;47.422;15.018;2022-11-20T12:55:45;14.50;41.20
23669;DHT22;12011;47.422;15.018;2022-11-20T12:58:46;14.70;39.80
23669;DHT22;12011;47.422;15.018;2022-11-20T13:01:47;14.30;44.60
23669;DHT22;12011;47.422;15.018;2022-11-20T13:05:01;14.00;41.50
23669;DHT22;12011;47.422;15.018;2022-11-20T13:08:01;13.60;42.20
23669;DHT22;12011;47.422;15.018;2022-11-20T13:10:59;12.20;46.30
23669;DHT22;12011;47.422;15.018;2022-11-20T13:14:13;11.60;50.70
23669;DHT22;12011;47.422;15.018;2022-11-20T13:17:16;10.90;54.40
23669;DHT22;12011;47.422;15.018;2022-11-20T13:20:15;10.50;56.30
23669;DHT22;12011;47.422;15.018;2022-11-20T13:23:06;9.80;58.30
23669;DHT22;12011;47.422;15.018;2022-11-20T13:26:13;9.30;59.20
23669;DHT22;12011;47.422;15.018;2022-11-20T13:29:11;9.10;60.90
23669;DHT22;12011;47.422;15.018;2022-11-20T13:32:12;8.80;62.80
23669;DHT22;12011;47.422;15.018;2022-11-20T13:35:05;8.70;63.20
23669;DHT22;12011;47.422;15.018;2022-11-20T13:38:10;8.60;65.70
23669;DHT22;12011;47.422;15.018;2022-11-20T13:41:01;8.70;68.90
23669;DHT22;12011;47.422;15.018;2022-11-20T13:44:15;8.70;70.30
23669;DHT22;12011;47.422;15.018;2022-11-20T13:47:21;8.60;66.00
23669;DHT22;12011;47.422;15.018;2022-11-20T13:50:14;8.70;68.80
23669;DHT22;12011;47.422;15.018;2022-11-20T13:53:23;8.70;66.80
23669;DHT22;12011;47.422;15.018;2022-11-20T13:56:27;8.90;67.70
23669;DHT22;12011;47.422;15.018;2022-11-20T13:59:48;9.00;65.50
23669;DHT22;12011;47.422;15.018;2022-11-20T14:02:43;9.00;64.40
23669;DHT22;12011;47.422;15.018;2022-11-20T14:05:47;8.80;61.60
23669;DHT22;12011;47.422;15.018;2022-11-20T14:08:28;8.80;63.30
23669;DHT22;12011;47.422;15.018;2022-11-20T14:11:06;8.70;64.20
23669;DHT22;12011;47.422;15.018;2022-11-20T14:13:57;8.40;67.30
23669;DHT22;12011;47.422;15.018;2022-11-20T14:16:32;8.40;66.50
23669;DHT22;12011;47.422;15.018;2022-11-20T14:19:27;8.30;64.80
23669;DHT22;12011;47.422;15.018;2022-11-20T14:22:10;8.30;65.30
23669;DHT22;12011;47.422;15.018;2022-11-20T14:25:02;8.10;64.60
23669;DHT22;12011;47.422;15.018;2022-11-20T14:27:37;8.10;65.50
23669;DHT22;12011;47.422;15.018;2022-11-20T14:30:28;8.00;72.30
23669;DHT22;12011;47.422;15.018;2022-11-20T14:33:25;7.90;63.80
23669;DHT22;12011;47.422;15.018;2022-11-20T14:36:19;7.70;65.50
23669;DHT22;12011;47.422;15.018;2022-11-20T14:39:12;7.50;72.60
23669;DHT22;12011;47.422;15.018;2022-11-20T14:42:19;7.30;73.80
23669;DHT22;12011;47.422;15.018;2022-11-20T14:45:12;7.00;79.50
23669;DHT22;12011;47.422;15.018;2022-11-20T14:48:02;6.80;82.70
23669;DHT22;12011;47.422;15.018;2022-11-20T14:50:53;6.70;90.70
23669;DHT22;12011;47.422;15.018;2022-11-20T14:53:42;6.60;90.50
23669;DHT22;12011;47.422;15.018;2022-11-20T14:56:32;6.60;90.80
23669;DHT22;12011;47.422;15.018;2022-11-20T14:59:27;6.50;92.20
23669;DHT22;12011;47.422;15.018;2022-11-20T15:02:18;6.40;93.60
23669;DHT22;12011;47.422;15.018;2022-11-20T15:05:08;6.20;90.60
23669;DHT22;12011;47.422;15.018;2022-11-20T15:08:07;6.30;88.50
23669;DHT22;12011;47.422;15.018;2022-11-20T15:10:59;6.30;87.90
23669;DHT22;12011;47.422;15.018;2022-11-20T15:13:48;5.80;91.70
23669;DHT22;12011;47.422;15.018;2022-11-20T15:16:41;5.70;95.40
23669;DHT22;12011;47.422;15.018;2022-11-20T15:19:31;5.40;93.60
23669;DHT22;12011;47.422;15.018;2022-11-20T15:22:21;5.10;95.90
23669;DHT22;12011;47.422;15.018;2022-11-20T15:25:12;4.70;97.70
23669;DHT22;12011;47.422;15.018;2022-11-20T15:28:04;4.70;99.90
23669;DHT22;12011;47.422;15.018;2022-11-20T15:30:54;4.70;99.90
23669;DHT22;12011;47.422;15.018;2022-11-20T15:33:48;4.60;98.50
23669;DHT22;12011;47.422;15.018;2022-11-20T15:36:38;4.10;95.80
23669;DHT22;12011;47.422;15.018;2022-11-20T15:39:28;3.80;99.40
23669;DHT22;12011;47.422;15.018;2022-11-20T15:42:18;3.60;99.90
23669;DHT22;12011;47.422;15.018;2022-11-20T15:45:09;3.70;99.90
23669;DHT22;12011;47.422;15.018;2022-11-20T15:47:59;3.60;99.90
23669;DHT22;12011;47.422;15.018;2022-11-20T15:50:58;3.40;99.50
23669;DHT22;12011;47.422;15.018;2022-11-20T15:53:50;3.20;99.90
23669;DHT22;12011;47.422;15.018;2022-11-20T15:56:40;3.10;99.90
23669;DHT22;12011;47.422;15.018;2022-11-20T15:59:30;2.90;99.90
23669;DHT22;12011;47.422;15.018;2022-11-20T16:02:23;2.70;99.90
23669;DHT22;12011;47.422;15.018;2022-11-20T16:05:15;2.70;99.90
23669;DHT22;12011;47.422;15.018;2022-11-20T16:08:08;2.70;99.90
23669;DHT22;12011;47.422;15.018;2022-11-20T16:10:58;2.80;99.90
23669;DHT22;12011;47.422;15.018;2022-11-20T16:13:48;3.00;99.90
23669;DHT22;12011;47.422;15.018;2022-11-20T16:16:51;3.50;99.90
23669;DHT22;12011;47.422;15.018;2022-11-20T16:19:41;3.00;99.90
23669;DHT22;12011;47.422;15.018;2022-11-20T16:22:31;2.90;99.90
23669;DHT22;12011;47.422;15.018;2022-11-20T16:25:23;2.50;99.90
23669;DHT22;12011;47.422;15.018;2022-11-20T16:28:14;2.20;99.90
23669;DHT22;12011;47.422;15.018;2022-11-20T16:31:08;2.00;99.90
23669;DHT22;12011;47.422;15.018;2022-11-20T16:34:01;2.10;99.90
23669;DHT22;12011;47.422;15.018;2022-11-20T16:36:53;1.80;99.90
23669;DHT22;12011;47.422;15.018;2022-11-20T16:39:43;1.80;99.90
23669;DHT22;12011;47.422;15.018;2022-11-20T16:42:36;2.00;99.90
23669;DHT22;12011;47.422;15.018;2022-11-20T16:45:27;2.10;99.90
23669;DHT22;12011;47.422;15.018;2022-11-20T16:48:17;2.00;99.90
23669;DHT22;12011;47.422;15.018;2022-11-20T16:51:09;2.00;99.90
23669;DHT22;12011;47.422;15.018;2022-11-20T16:54:02;1.90;99.90
23669;DHT22;12011;47.422;15.018;2022-11-20T16:56:52;1.80;99.90
23669;DHT22;12011;47.422;15.018;2022-11-20T16:59:45;1.70;99.90
23669;DHT22;12011;47.422;15.018;2022-11-20T17:02:35;1.70;99.90
23669;DHT22;12011;47.422;15.018;2022-11-20T17:05:28;1.50;99.90
23669;DHT22;12011;47.422;15.018;2022-11-20T17:08:19;1.10;99.90
23669;DHT22;12011;47.422;15.018;2022-11-20T17:11:10;1.10;99.90
23669;DHT22;12011;47.422;15.018;2022-11-20T17:14:02;1.00;99.90
23669;DHT22;12011;47.422;15.018;2022-11-20T17:16:55;0.70;99.90
23669;DHT22;12011;47.422;15.018;2022-11-20T17:19:45;1.40;99.90
23669;DHT22;12011;47.422;15.018;2022-11-20T17:22:35;0.70;99.90
23669;DHT22;12011;47.422;15.018;2022-11-20T17:25:25;0.70;99.90
23669;DHT22;12011;47.422;15.018;2022-11-20T17:28:15;0.80;99.90
23669;DHT22;12011;47.422;15.018;2022-11-20T17:31:07;0.80;99.90
23669;DHT22;12011;47.422;15.018;2022-11-20T17:34:01;0.50;99.90
23669;DHT22;12011;47.422;15.018;2022-11-20T17:36:51;0.40;99.90
23669;DHT22;12011;47.422;15.018;2022-11-20T17:39:42;0.40;99.90
23669;DHT22;12011;47.422;15.018;2022-11-20T17:42:34;0.50;99.90
23669;DHT22;12011;47.422;15.018;2022-11-20T17:45:24;0.50;99.90
23669;DHT22;12011;47.422;15.018;2022-11-20T17:48:15;0.40;99.90
23669;DHT22;12011;47.422;15.018;2022-11-20T17:51:09;0.30;99.90
23669;DHT22;12011;47.422;15.018;2022-11-20T17:54:03;0.10;99.90
23669;DHT22;12011;47.422;15.018;2022-11-20T17:56:59;0.20;99.90
23669;DHT22;12011;47.422;15.018;2022-11-20T18:00:09;0.10;99.90
23669;DHT22;12011;47.422;15.018;2022-11-20T18:03:02;0.10;99.90
23669;DHT22;12011;47.422;15.018;2022-11-20T18:05:52;0.10;99.90
23669;DHT22;12011;47.422;15.018;2022-11-20T18:08:46;0.00;99.90
23669;DHT22;12011;47.422;15.018;2022-11-20T18:11:40;-0.30;99.90
23669;DHT22;12011;47.422;15.018;2022-11-20T18:14:36;-0.40;99.90
23669;DHT22;12011;47.422;15.018;2022-11-20T18:17:28;-0.50;99.90
23669;DHT22;12011;47.422;15.018;2022-11-20T18:20:20;-0.50;99.90
23669;DHT22;12011;47.422;15.018;2022-11-20T18:23:12;-0.30;99.90
23669;DHT22;12011;47.422;15.018;2022-11-20T18:26:11;-0.30;99.90
23669;DHT22;12011;47.422;15.018;2022-11-20T18:29:02;-0.20;99.90